createdAt,value
2023-04-04T00:02:23.468Z,3.99
2023-04-04T00:04:50.006Z,3.93
2023-04-04T00:07:16.981Z,3.91
2023-04-04T00:09:43.506Z,3.87
2023-04-04T00:12:10.078Z,3.86
2023-04-04T00:14:36.727Z,3.83
2023-04-04T00:17:03.270Z,3.82
2023-04-04T00:19:29.816Z,3.81
2023-04-04T00:21:56.480Z,3.77
2023-04-04T00:24:23.081Z,3.74
2023-04-04T00:26:49.601Z,3.72
2023-04-04T00:29:16.201Z,3.69
2023-04-04T00:31:42.867Z,3.67
2023-04-04T00:34:09.418Z,3.67
2023-04-04T00:36:36.216Z,3.67
2023-04-04T00:39:02.743Z,3.65
2023-04-04T00:41:30.137Z,3.64
2023-04-04T00:43:56.866Z,3.59
2023-04-04T00:46:25.264Z,3.58
2023-04-04T00:48:52.109Z,3.55
2023-04-04T00:51:18.617Z,3.51
2023-04-04T00:53:46.950Z,3.48
2023-04-04T00:56:13.988Z,3.48
2023-04-04T00:58:41.631Z,3.46
2023-04-04T01:01:08.587Z,3.42
2023-04-04T01:03:35.494Z,3.38
2023-04-04T01:06:02.742Z,3.33
2023-04-04T01:08:30.435Z,3.31
2023-04-04T01:10:57.642Z,3.29
2023-04-04T01:13:24.319Z,3.24
2023-04-04T01:15:51.279Z,3.22
2023-04-04T01:18:21.480Z,3.17
2023-04-04T01:20:57.748Z,3.14
2023-04-04T01:23:35.119Z,3.10
2023-04-04T01:26:03.725Z,3.10
2023-04-04T01:28:30.346Z,3.09
2023-04-04T01:30:59.887Z,3.07
2023-04-04T01:33:31.325Z,3.03
2023-04-04T01:36:03.831Z,3.00
2023-04-04T01:38:45.955Z,2.97
2023-04-04T01:41:13.094Z,2.88
2023-04-04T01:43:39.665Z,2.90
2023-04-04T01:46:06.768Z,2.90
2023-04-04T01:48:33.444Z,2.90
2023-04-04T01:51:01.954Z,2.87
2023-04-04T01:53:28.540Z,2.87
2023-04-04T01:55:55.141Z,2.86
2023-04-04T01:58:22.347Z,2.83
2023-04-04T02:00:48.866Z,2.81
2023-04-04T02:03:15.865Z,2.79
2023-04-04T02:05:42.782Z,2.77
2023-04-04T02:08:09.328Z,2.75
2023-04-04T02:10:35.915Z,2.75
2023-04-04T02:13:02.476Z,2.74
2023-04-04T02:15:29.129Z,2.74
2023-04-04T02:17:55.714Z,2.72
2023-04-04T02:20:22.686Z,2.71
2023-04-04T02:22:56.212Z,2.65
2023-04-04T02:25:24.461Z,2.63
2023-04-04T02:27:51.449Z,2.62
2023-04-04T02:30:19.423Z,2.61
2023-04-04T02:32:47.222Z,2.58
2023-04-04T02:35:13.902Z,2.56
2023-04-04T02:37:40.665Z,2.53
2023-04-04T02:40:08.062Z,2.50
2023-04-04T02:42:34.586Z,2.49
2023-04-04T02:45:01.331Z,2.46
2023-04-04T02:47:28.660Z,2.41
2023-04-04T02:49:55.241Z,2.38
2023-04-04T02:52:22.373Z,2.39
2023-04-04T02:54:49.838Z,2.37
2023-04-04T02:57:16.380Z,2.33
2023-04-04T02:59:43.191Z,2.30
2023-04-04T03:02:09.713Z,2.28
2023-04-04T03:04:36.814Z,2.24
2023-04-04T03:07:03.804Z,2.20
2023-04-04T03:09:30.369Z,2.15
2023-04-04T03:11:57.188Z,2.08
2023-04-04T03:14:23.882Z,2.00
2023-04-04T03:16:50.609Z,1.95
2023-04-04T03:19:17.305Z,1.88
2023-04-04T03:21:43.853Z,1.84
2023-04-04T03:24:10.424Z,1.81
2023-04-04T03:26:37.497Z,1.77
2023-04-04T03:29:04.809Z,1.74
2023-04-04T03:31:31.572Z,1.71
2023-04-04T03:33:59.903Z,1.66
2023-04-04T03:36:26.841Z,1.63
2023-04-04T03:38:53.493Z,1.63
2023-04-04T03:41:20.063Z,1.63
2023-04-04T03:43:46.605Z,1.64
2023-04-04T03:46:13.195Z,1.64
2023-04-04T03:48:39.916Z,1.61
2023-04-04T03:51:06.490Z,1.60
2023-04-04T03:53:33.192Z,1.61
2023-04-04T03:55:59.892Z,1.62
2023-04-04T03:58:28.324Z,1.59
2023-04-04T04:00:55.115Z,1.57
2023-04-04T04:03:21.883Z,1.56
2023-04-04T04:05:48.670Z,1.55
2023-04-04T04:08:15.209Z,1.55
2023-04-04T04:10:41.963Z,1.54
2023-04-04T04:13:08.873Z,1.54
2023-04-04T04:15:35.591Z,1.53
2023-04-04T04:18:02.139Z,1.50
2023-04-04T04:20:28.693Z,1.50
2023-04-04T04:22:55.374Z,1.50
2023-04-04T04:25:22.134Z,1.49
2023-04-04T04:27:49.011Z,1.49
2023-04-04T04:30:15.631Z,1.44
2023-04-04T04:32:42.363Z,1.42
2023-04-04T04:35:09.855Z,1.42
2023-04-04T04:37:36.586Z,1.38
2023-04-04T04:40:03.422Z,1.35
2023-04-04T04:42:30.116Z,1.32
2023-04-04T04:44:56.711Z,1.26
2023-04-04T04:47:23.636Z,1.25
2023-04-04T04:49:50.215Z,1.27
2023-04-04T04:52:16.771Z,1.26
2023-04-04T04:54:45.974Z,1.63
2023-04-04T04:57:12.568Z,2.86
2023-04-04T04:59:41.307Z,3.99
2023-04-04T05:02:08.019Z,4.98
2023-04-04T05:04:34.911Z,5.02
2023-04-04T05:07:01.665Z,4.55
2023-04-04T05:09:28.258Z,4.04
2023-04-04T05:11:54.822Z,3.57
2023-04-04T05:14:21.374Z,3.21
2023-04-04T05:16:49.040Z,2.91
2023-04-04T05:19:15.843Z,2.69
2023-04-04T05:21:43.279Z,2.53
2023-04-04T05:24:10.170Z,2.42
2023-04-04T05:26:36.705Z,2.30
2023-04-04T05:29:03.207Z,2.20
2023-04-04T05:31:29.815Z,2.10
2023-04-04T05:33:56.670Z,1.99
2023-04-04T05:36:23.411Z,1.93
2023-04-04T05:38:50.099Z,1.86
2023-04-04T05:41:16.642Z,1.81
2023-04-04T05:43:43.220Z,1.74
2023-04-04T05:46:09.945Z,1.73
2023-04-04T05:48:36.585Z,1.72
2023-04-04T05:51:03.268Z,1.69
2023-04-04T05:53:30.281Z,1.66
2023-04-04T05:55:58.668Z,1.66
2023-04-04T05:58:26.425Z,1.63
2023-04-04T06:00:53.035Z,1.63
2023-04-04T06:03:21.828Z,1.63
2023-04-04T06:05:53.014Z,1.63
2023-04-04T06:08:19.806Z,1.63
2023-04-04T06:10:46.435Z,1.64
2023-04-04T06:13:13.008Z,1.68
2023-04-04T06:15:39.544Z,1.71
2023-04-04T06:18:06.099Z,1.73
2023-04-04T06:20:32.704Z,1.74
2023-04-04T06:23:02.060Z,1.74
2023-04-04T06:25:28.715Z,1.76
2023-04-04T06:27:55.568Z,1.77
2023-04-04T06:30:22.105Z,1.82
2023-04-04T06:32:49.393Z,1.87
2023-04-04T06:35:18.120Z,1.92
2023-04-04T06:37:46.158Z,1.99
2023-04-04T06:40:12.818Z,2.04
2023-04-04T06:42:39.374Z,2.12
2023-04-04T06:45:06.430Z,2.21
2023-04-04T06:47:33.014Z,2.28
2023-04-04T06:49:59.650Z,2.35
2023-04-04T06:52:26.669Z,2.43
2023-04-04T06:54:53.201Z,2.50
2023-04-04T06:57:19.768Z,2.61
2023-04-04T06:59:46.477Z,2.72
2023-04-04T07:02:13.115Z,2.76
2023-04-04T07:04:40.156Z,2.83
2023-04-04T07:07:06.728Z,2.91
2023-04-04T07:09:33.301Z,3.01
2023-04-04T07:11:59.922Z,3.09
2023-04-04T07:14:26.511Z,3.13
2023-04-04T07:16:53.395Z,3.22
2023-04-04T07:19:19.995Z,3.26
2023-04-04T07:21:46.505Z,3.35
2023-04-04T07:24:13.028Z,3.36
2023-04-04T07:26:40.909Z,3.42
2023-04-04T07:29:08.124Z,3.52
2023-04-04T07:31:34.796Z,3.58
2023-04-04T07:34:02.155Z,3.68
2023-04-04T07:36:28.671Z,3.72
2023-04-04T07:38:55.523Z,3.81
2023-04-04T07:41:22.681Z,3.90
2023-04-04T07:43:49.667Z,3.95
2023-04-04T07:46:16.887Z,4.03
2023-04-04T07:48:44.064Z,4.13
2023-04-04T07:51:10.634Z,4.23
2023-04-04T07:53:37.670Z,4.29
2023-04-04T07:56:06.595Z,4.34
2023-04-04T07:58:36.690Z,4.33
2023-04-04T08:01:04.064Z,4.37
2023-04-04T08:03:30.893Z,4.45
2023-04-04T08:05:57.636Z,4.55
2023-04-04T08:08:24.292Z,4.65
2023-04-04T08:10:50.855Z,4.70
2023-04-04T08:13:17.347Z,4.74
2023-04-04T08:15:44.161Z,4.77
2023-04-04T08:18:11.178Z,4.83
2023-04-04T08:20:38.211Z,4.93
2023-04-04T08:23:05.059Z,5.02
2023-04-04T08:25:31.631Z,5.09
2023-04-04T08:27:58.327Z,5.13
2023-04-04T08:30:24.996Z,5.21
2023-04-04T08:32:51.590Z,5.23
2023-04-04T08:35:18.290Z,5.30
2023-04-04T08:37:46.330Z,5.42
2023-04-04T08:40:13.481Z,5.51
2023-04-04T08:42:44.411Z,5.63
2023-04-04T08:45:12.420Z,5.78
2023-04-04T08:47:41.107Z,5.87
2023-04-04T08:50:08.594Z,5.96
2023-04-04T08:52:35.889Z,6.00
2023-04-04T08:55:05.545Z,5.99
2023-04-04T08:57:33.570Z,6.04
2023-04-04T09:00:00.625Z,6.09
2023-04-04T09:02:34.281Z,6.11
2023-04-04T09:05:06.720Z,6.23
2023-04-04T09:07:34.344Z,6.34
2023-04-04T09:10:04.097Z,6.47
2023-04-04T09:12:32.562Z,6.62
2023-04-04T09:15:00.702Z,6.71
2023-04-04T09:17:27.482Z,6.79
2023-04-04T09:19:54.288Z,6.85
2023-04-04T09:22:21.078Z,6.92
2023-04-04T09:24:48.429Z,6.97
2023-04-04T09:27:16.421Z,7.02
2023-04-04T09:29:43.000Z,7.00
2023-04-04T09:32:13.994Z,6.97
2023-04-04T09:34:41.697Z,7.00
2023-04-04T09:37:08.425Z,7.05
2023-04-04T09:39:35.585Z,7.14
2023-04-04T09:42:02.413Z,7.14
2023-04-04T09:44:33.418Z,7.22
2023-04-04T09:47:31.742Z,7.25
2023-04-04T09:50:04.195Z,7.26
2023-04-04T09:52:35.802Z,7.20
2023-04-04T09:55:04.719Z,7.18
2023-04-04T09:57:38.043Z,7.29
2023-04-04T10:00:09.630Z,7.39
2023-04-04T10:02:46.185Z,7.40
2023-04-04T10:05:12.869Z,7.43
2023-04-04T10:07:40.408Z,7.51
2023-04-04T10:10:09.139Z,7.67
2023-04-04T10:12:37.141Z,7.82
2023-04-04T10:15:04.020Z,7.84
2023-04-04T10:17:31.920Z,7.88
2023-04-04T10:20:04.424Z,7.89
2023-04-04T10:22:35.875Z,7.96
2023-04-04T10:25:03.838Z,8.07
2023-04-04T10:27:30.642Z,8.20
2023-04-04T10:29:57.316Z,8.25
2023-04-04T10:32:57.704Z,8.21
2023-04-04T10:35:25.240Z,8.16
2023-04-04T10:37:59.167Z,8.25
2023-04-04T10:40:34.630Z,8.34
2023-04-04T10:43:04.183Z,8.39
2023-04-04T10:45:32.167Z,8.48
2023-04-04T10:48:00.284Z,8.62
2023-04-04T10:50:26.958Z,8.85
2023-04-04T10:52:53.562Z,8.88
2023-04-04T10:55:20.554Z,8.83
2023-04-04T10:57:51.949Z,8.80
2023-04-04T11:00:20.302Z,8.83
2023-04-04T11:02:58.400Z,8.96
2023-04-04T11:05:42.537Z,9.08
2023-04-04T11:08:11.089Z,9.11
2023-04-04T11:10:41.333Z,9.13
2023-04-04T11:13:15.956Z,9.26
2023-04-04T11:15:56.707Z,9.36
2023-04-04T11:18:43.725Z,9.45
2023-04-04T11:21:13.895Z,9.48
2023-04-04T11:23:49.363Z,9.43
2023-04-04T11:26:35.441Z,9.53
2023-04-04T11:29:04.579Z,9.65
2023-04-04T11:31:39.155Z,9.73
2023-04-04T11:34:13.431Z,9.90
2023-04-04T11:36:40.760Z,10.05
2023-04-04T11:39:17.007Z,10.13
2023-04-04T11:42:12.126Z,10.09
2023-04-04T11:44:45.692Z,10.19
2023-04-04T11:47:13.596Z,10.38
2023-04-04T11:49:45.780Z,10.50
2023-04-04T11:52:13.250Z,10.52
2023-04-04T11:54:41.667Z,10.68
2023-04-04T11:57:11.614Z,10.66
2023-04-04T11:59:46.119Z,10.51
2023-04-04T12:02:15.721Z,10.52
2023-04-04T12:04:46.041Z,10.46
2023-04-04T12:07:14.058Z,10.61
2023-04-04T12:09:42.298Z,10.85
2023-04-04T12:12:18.711Z,11.08
2023-04-04T12:14:45.614Z,11.28
2023-04-04T12:17:12.229Z,11.36
2023-04-04T12:19:40.567Z,11.26
2023-04-04T12:22:08.494Z,11.21
2023-04-04T12:24:36.386Z,11.03
2023-04-04T12:27:03.659Z,10.90
2023-04-04T12:29:36.516Z,10.88
2023-04-04T12:32:04.669Z,10.92
2023-04-04T12:34:33.895Z,10.85
2023-04-04T12:37:01.890Z,10.91
2023-04-04T12:39:29.890Z,11.00
2023-04-04T12:42:01.281Z,11.07
2023-04-04T12:44:36.396Z,11.05
2023-04-04T12:47:05.633Z,11.14
2023-04-04T12:49:43.097Z,11.28
2023-04-04T12:52:21.846Z,11.45
2023-04-04T12:54:59.164Z,11.51
2023-04-04T12:57:34.188Z,11.62
2023-04-04T13:00:02.264Z,11.60
2023-04-04T13:02:29.683Z,11.74
2023-04-04T13:04:58.832Z,11.96
2023-04-04T13:07:40.060Z,12.02
2023-04-04T13:10:07.534Z,12.12
2023-04-04T13:12:58.345Z,12.00
2023-04-04T13:15:53.224Z,11.81
2023-04-04T13:18:25.213Z,11.80
2023-04-04T13:20:52.777Z,11.85
2023-04-04T13:23:19.970Z,12.04
2023-04-04T13:25:46.651Z,12.12
2023-04-04T13:28:14.378Z,12.23
2023-04-04T13:30:46.486Z,12.46
2023-04-04T13:33:13.019Z,12.68
2023-04-04T13:35:42.388Z,12.81
2023-04-04T13:38:09.023Z,12.97
2023-04-04T13:40:35.720Z,13.13
2023-04-04T13:43:02.297Z,13.34
2023-04-04T13:45:28.836Z,13.49
2023-04-04T13:47:55.596Z,13.77
2023-04-04T13:50:22.971Z,14.05
2023-04-04T13:52:52.375Z,14.42
2023-04-04T13:55:19.015Z,14.71
2023-04-04T13:57:45.540Z,15.05
2023-04-04T14:00:13.158Z,15.23
2023-04-04T14:02:39.962Z,15.61
2023-04-04T14:05:08.082Z,16.03
2023-04-04T14:07:34.709Z,16.29
2023-04-04T14:10:01.419Z,16.64
2023-04-04T14:12:28.089Z,16.62
2023-04-04T14:14:54.627Z,16.84
2023-04-04T14:17:21.309Z,17.11
2023-04-04T14:19:47.842Z,17.51
2023-04-04T14:22:14.394Z,17.66
2023-04-04T14:24:41.336Z,17.91
2023-04-04T14:27:07.875Z,18.03
2023-04-04T14:29:34.432Z,17.90
2023-04-04T14:32:01.413Z,17.91
2023-04-04T14:34:28.120Z,18.29
2023-04-04T14:36:54.752Z,18.49
2023-04-04T14:39:21.609Z,18.81
2023-04-04T14:41:48.558Z,19.31
2023-04-04T14:44:15.396Z,19.69
2023-04-04T14:46:41.923Z,19.89
2023-04-04T14:49:08.461Z,20.19
2023-04-04T14:51:35.024Z,20.45
2023-04-04T14:54:01.647Z,20.52
2023-04-04T14:56:28.269Z,20.70
2023-04-04T14:58:54.903Z,20.63
2023-04-04T15:01:22.814Z,20.64
2023-04-04T15:03:49.936Z,20.96
2023-04-04T15:06:16.786Z,21.09
2023-04-04T15:08:43.335Z,21.42
2023-04-04T15:11:10.145Z,21.51
2023-04-04T15:13:36.779Z,21.46
2023-04-04T15:16:04.274Z,21.32
2023-04-04T15:18:31.036Z,21.39
2023-04-04T15:20:58.662Z,21.47
2023-04-04T15:23:25.366Z,21.60
2023-04-04T15:25:51.945Z,21.80
2023-04-04T15:28:18.462Z,21.93
2023-04-04T15:30:44.984Z,22.03
2023-04-04T15:33:11.617Z,22.18
2023-04-04T15:35:38.228Z,22.31
2023-04-04T15:38:04.741Z,22.15
2023-04-04T15:40:31.682Z,21.83
2023-04-04T15:42:58.289Z,21.57
2023-04-04T15:45:25.010Z,21.55
2023-04-04T15:47:51.615Z,21.70
2023-04-04T15:50:18.283Z,21.64
2023-04-04T15:52:44.882Z,21.78
2023-04-04T15:55:13.669Z,21.97
2023-04-04T15:57:40.668Z,22.10
2023-04-04T16:00:07.788Z,22.07
2023-04-04T16:02:34.704Z,21.92
2023-04-04T16:05:01.673Z,21.83
2023-04-04T16:07:28.283Z,21.77
2023-04-04T16:09:55.272Z,21.42
2023-04-04T16:12:22.491Z,21.20
2023-04-04T16:14:49.212Z,21.09
2023-04-04T16:17:15.788Z,21.19
2023-04-04T16:19:43.516Z,21.40
2023-04-04T16:22:10.097Z,21.32
2023-04-04T16:24:37.279Z,21.27
2023-04-04T16:27:03.975Z,20.90
2023-04-04T16:29:31.256Z,20.59
2023-04-04T16:31:57.927Z,20.36
2023-04-04T16:34:24.494Z,20.24
2023-04-04T16:36:51.181Z,20.12
2023-04-04T16:39:18.056Z,19.70
2023-04-04T16:41:44.588Z,18.80
2023-04-04T16:44:12.329Z,17.67
2023-04-04T16:46:38.951Z,16.60
2023-04-04T16:49:05.622Z,15.74
2023-04-04T16:51:32.340Z,15.08
2023-04-04T16:53:58.836Z,14.44
2023-04-04T16:56:25.564Z,13.90
2023-04-04T16:58:52.172Z,13.48
2023-04-04T17:01:22.572Z,13.13
2023-04-04T17:03:49.517Z,12.80
2023-04-04T17:06:16.164Z,12.52
2023-04-04T17:08:45.076Z,12.27
2023-04-04T17:11:13.119Z,12.06
2023-04-04T17:13:39.708Z,11.94
2023-04-04T17:16:06.648Z,11.82
2023-04-04T17:18:34.178Z,11.70
2023-04-04T17:21:01.411Z,11.59
2023-04-04T17:23:27.989Z,11.48
2023-04-04T17:25:54.578Z,11.37
2023-04-04T17:28:21.611Z,11.26
2023-04-04T17:30:48.220Z,11.15
2023-04-04T17:33:14.850Z,11.09
2023-04-04T17:35:41.430Z,11.02
2023-04-04T17:38:08.099Z,10.90
2023-04-04T17:40:36.445Z,10.81
2023-04-04T17:43:03.118Z,10.72
2023-04-04T17:45:29.763Z,10.63
2023-04-04T17:47:56.332Z,10.56
2023-04-04T17:50:23.001Z,10.53
2023-04-04T17:52:49.575Z,10.47
2023-04-04T17:55:16.605Z,10.40
2023-04-04T17:57:44.967Z,10.33
2023-04-04T18:00:12.365Z,10.26
2023-04-04T18:02:38.973Z,10.19
2023-04-04T18:05:05.891Z,10.12
2023-04-04T18:07:32.429Z,10.07
2023-04-04T18:09:58.926Z,10.00
2023-04-04T18:12:30.039Z,9.96
2023-04-04T18:14:56.753Z,9.89
2023-04-04T18:17:23.827Z,9.84
2023-04-04T18:19:50.387Z,9.79
2023-04-04T18:22:17.740Z,9.74
2023-04-04T18:24:44.792Z,9.66
2023-04-04T18:27:12.317Z,9.59
2023-04-04T18:29:39.020Z,9.52
2023-04-04T18:32:05.663Z,9.44
2023-04-04T18:34:33.516Z,9.38
2023-04-04T18:37:00.111Z,9.32
2023-04-04T18:39:27.782Z,9.25
2023-04-04T18:41:54.797Z,9.17
2023-04-04T18:44:21.672Z,9.09
2023-04-04T18:46:48.507Z,9.00
2023-04-04T18:49:15.101Z,8.94
2023-04-04T18:51:42.014Z,8.89
2023-04-04T18:54:08.599Z,8.83
2023-04-04T18:56:36.117Z,8.80
2023-04-04T18:59:03.685Z,8.74
2023-04-04T19:01:31.588Z,8.64
2023-04-04T19:03:58.369Z,8.53
2023-04-04T19:06:27.515Z,8.40
2023-04-04T19:08:57.519Z,8.28
2023-04-04T19:11:25.291Z,8.13
2023-04-04T19:13:51.888Z,8.00
2023-04-04T19:16:18.785Z,7.89
2023-04-04T19:18:45.355Z,7.77
2023-04-04T19:21:12.017Z,7.66
2023-04-04T19:23:38.581Z,7.57
2023-04-04T19:26:06.566Z,7.49
2023-04-04T19:28:33.580Z,7.36
2023-04-04T19:31:02.057Z,7.29
2023-04-04T19:33:28.738Z,7.21
2023-04-04T19:35:59.085Z,7.14
2023-04-04T19:38:32.345Z,7.04
2023-04-04T19:41:01.702Z,6.99
2023-04-04T19:43:29.618Z,6.93
2023-04-04T19:45:58.392Z,6.88
2023-04-04T19:48:55.389Z,6.80
2023-04-04T19:51:21.933Z,6.76
2023-04-04T19:53:56.877Z,6.71
2023-04-04T19:56:28.433Z,6.63
2023-04-04T19:59:00.499Z,6.57
2023-04-04T20:01:28.181Z,6.44
2023-04-04T20:04:03.940Z,6.43
2023-04-04T20:06:34.292Z,6.37
2023-04-04T20:09:03.352Z,6.33
2023-04-04T20:11:35.560Z,6.28
2023-04-04T20:14:06.217Z,6.23
2023-04-04T20:16:33.448Z,6.20
2023-04-04T20:19:02.205Z,6.16
2023-04-04T20:21:32.016Z,6.11
2023-04-04T20:24:04.470Z,6.07
2023-04-04T20:26:34.219Z,6.05
2023-04-04T20:29:01.319Z,6.01
2023-04-04T20:31:27.870Z,5.96
2023-04-04T20:33:54.932Z,5.92
2023-04-04T20:36:21.790Z,5.88
2023-04-04T20:38:48.494Z,5.85
2023-04-04T20:41:19.572Z,5.82
2023-04-04T20:43:56.727Z,5.77
2023-04-04T20:46:25.563Z,5.78
2023-04-04T20:48:56.334Z,5.77
2023-04-04T20:51:27.329Z,5.76
2023-04-04T20:53:56.143Z,5.74
2023-04-04T20:56:41.273Z,5.67
2023-04-04T20:59:31.891Z,5.65
2023-04-04T21:02:13.285Z,5.65
2023-04-04T21:04:41.257Z,5.65
2023-04-04T21:07:08.438Z,5.56
2023-04-04T21:09:35.019Z,5.54
2023-04-04T21:12:02.156Z,5.52
2023-04-04T21:14:35.868Z,5.50
2023-04-04T21:17:04.876Z,5.48
2023-04-04T21:19:31.456Z,5.45
2023-04-04T21:21:58.131Z,5.46
2023-04-04T21:24:26.292Z,5.43
2023-04-04T21:26:53.169Z,5.41
2023-04-04T21:29:24.826Z,5.37
2023-04-04T21:31:53.978Z,5.36
2023-04-04T21:34:22.617Z,5.32
2023-04-04T21:36:51.542Z,5.33
2023-04-04T21:39:24.926Z,5.31
2023-04-04T21:41:56.617Z,5.29
2023-04-04T21:44:23.880Z,5.26
2023-04-04T21:46:50.696Z,5.26
2023-04-04T21:49:18.073Z,5.23
2023-04-04T21:51:44.608Z,5.20
2023-04-04T21:54:11.352Z,5.16
2023-04-04T21:56:38.519Z,5.14
2023-04-04T21:59:08.277Z,5.11
2023-04-04T22:01:37.210Z,5.07
2023-04-04T22:04:04.014Z,5.01
2023-04-04T22:06:31.114Z,4.96
2023-04-04T22:08:59.334Z,4.91
2023-04-04T22:11:27.194Z,4.87
2023-04-04T22:14:03.859Z,4.83
2023-04-04T22:16:31.589Z,4.79
2023-04-04T22:18:58.820Z,4.78
2023-04-04T22:21:28.114Z,4.77
2023-04-04T22:24:00.626Z,4.78
2023-04-04T22:26:33.262Z,4.80
2023-04-04T22:29:05.395Z,4.78
2023-04-04T22:31:34.630Z,4.79
2023-04-04T22:34:03.176Z,4.81
2023-04-04T22:36:30.195Z,4.82
2023-04-04T22:38:57.892Z,4.82
2023-04-04T22:41:27.686Z,4.83
2023-04-04T22:43:54.697Z,4.87
2023-04-04T22:46:21.396Z,4.89
2023-04-04T22:48:48.299Z,4.89
2023-04-04T22:51:17.440Z,4.91
2023-04-04T22:53:44.447Z,4.92
2023-04-04T22:56:11.483Z,4.93
2023-04-04T22:58:38.507Z,4.94
2023-04-04T23:01:05.184Z,4.94
2023-04-04T23:03:31.977Z,4.94
2023-04-04T23:05:58.590Z,4.92
2023-04-04T23:08:25.340Z,4.88
2023-04-04T23:10:51.885Z,4.84
2023-04-04T23:13:18.425Z,4.81
2023-04-04T23:15:45.483Z,4.76
2023-04-04T23:18:13.296Z,4.70
2023-04-04T23:20:40.875Z,4.65
2023-04-04T23:23:07.634Z,4.63
2023-04-04T23:25:34.273Z,4.62
2023-04-04T23:28:00.882Z,4.61
2023-04-04T23:30:28.508Z,4.60
2023-04-04T23:32:55.058Z,4.61
2023-04-04T23:35:21.608Z,4.63
2023-04-04T23:37:48.785Z,4.63
2023-04-04T23:40:15.473Z,4.61
2023-04-04T23:42:42.073Z,4.58
2023-04-04T23:45:09.554Z,4.58
2023-04-04T23:47:37.092Z,4.54
2023-04-04T23:50:04.172Z,4.50
2023-04-04T23:52:30.712Z,4.45
2023-04-04T23:54:57.259Z,4.42
2023-04-04T23:57:24.166Z,4.37
2023-04-04T23:59:50.800Z,4.32
